Time;durP1;ratioP1;P1;durP2;ratioP2;P2;SDS_P1;SDS_P2;PMS_P1;PMS_P2;Temp;Humidity;BMP_temperature;BMP_pressure;BME280_temperature;BME280_humidity;BME280_pressure;Samples;Min_cycle;Max_cycle;Signal;HPM_P1;HPM_P2
2022/07/02 00:00:24;;;;;;;1.43;0.90;;;13.90;99.90;;;;;;5059131;28;20247;-56
2022/07/02 00:02:55;;;;;;;1.03;0.70;;;13.80;99.90;;;;;;5052088;28;20205;-56
2022/07/02 00:05:23;;;;;;;0.70;0.70;;;13.90;99.90;;;;;;5052777;28;20732;-56
2022/07/02 00:07:51;;;;;;;1.50;0.97;;;13.90;99.90;;;;;;5052644;28;20209;-56
2022/07/02 00:10:19;;;;;;;0.70;0.70;;;13.80;99.90;;;;;;5053960;28;20671;-56
2022/07/02 00:12:47;;;;;;;1.77;0.93;;;13.90;99.90;;;;;;5059305;28;20293;-56
2022/07/02 00:15:15;;;;;;;0.73;0.73;;;13.90;99.90;;;;;;5094194;22;20232;-48
2022/07/02 00:17:42;;;;;;;1.00;1.00;;;13.90;99.90;;;;;;5073017;28;20205;-48
2022/07/02 00:20:12;;;;;;;0.83;0.80;;;13.90;99.90;;;;;;5073244;28;20243;-47
2022/07/02 00:22:40;;;;;;;1.27;0.90;;;13.80;99.90;;;;;;5071388;28;20254;-48
2022/07/02 00:25:08;;;;;;;0.93;0.93;;;13.80;99.90;;;;;;5051299;28;20225;-48
2022/07/02 00:27:37;;;;;;;1.43;0.70;;;13.80;99.90;;;;;;5061216;28;20209;-47
2022/07/02 00:30:06;;;;;;;2.73;1.00;;;13.80;99.90;;;;;;5062152;28;20309;-47
2022/07/02 00:32:34;;;;;;;2.00;0.80;;;13.70;99.90;;;;;;5067085;28;20197;-48
2022/07/02 00:35:06;;;;;;;1.57;0.83;;;13.70;99.90;;;;;;5066045;28;20722;-48
2022/07/02 00:37:34;;;;;;;1.13;1.03;;;13.70;99.90;;;;;;5067774;28;20208;-48
2022/07/02 00:40:02;;;;;;;1.70;0.70;;;13.70;99.90;;;;;;5066354;28;20228;-48
2022/07/02 00:42:31;;;;;;;2.00;0.70;;;13.80;99.90;;;;;;5064274;28;20201;-47
2022/07/02 00:44:59;;;;;;;1.43;0.90;;;13.70;99.90;;;;;;5072486;28;20229;-48
2022/07/02 00:47:28;;;;;;;2.50;1.07;;;13.60;99.90;;;;;;5064775;28;20201;-47
2022/07/02 00:49:55;;;;;;;1.17;1.00;;;13.50;99.90;;;;;;5064370;28;20197;-48
2022/07/02 00:52:23;;;;;;;0.70;0.70;;;13.40;99.90;;;;;;5071710;28;20629;-48
2022/07/02 00:54:51;;;;;;;0.77;0.77;;;13.40;99.90;;;;;;5071713;28;20216;-48
2022/07/02 00:57:19;;;;;;;0.93;0.70;;;13.40;99.90;;;;;;5059258;28;20235;-48
2022/07/02 00:59:46;;;;;;;0.73;0.73;;;13.40;99.90;;;;;;5061732;28;20217;-47
2022/07/02 01:02:14;;;;;;;0.70;0.70;;;13.30;99.90;;;;;;5063719;28;20197;-48
2022/07/02 01:04:42;;;;;;;0.70;0.70;;;13.30;99.90;;;;;;5072360;28;20247;-48
2022/07/02 01:07:12;;;;;;;1.67;0.80;;;13.30;99.90;;;;;;5072174;28;20212;-48
2022/07/02 01:12:28;;;;;;;0.60;0.60;;;13.20;99.90;;;;;;5058949;28;20208;-48
2022/07/02 01:14:56;;;;;;;0.60;0.60;;;13.10;99.90;;;;;;5059428;28;20240;-48
2022/07/02 01:17:23;;;;;;;0.77;0.77;;;13.10;99.90;;;;;;5065547;28;20197;-48
2022/07/02 01:19:51;;;;;;;0.50;0.50;;;13.20;99.90;;;;;;5071348;28;20221;-48
2022/07/02 01:22:21;;;;;;;0.90;0.90;;;13.10;99.90;;;;;;5071056;28;20213;-48
2022/07/02 01:24:49;;;;;;;1.20;0.57;;;13.10;99.90;;;;;;5064221;28;20236;-47
2022/07/02 01:27:16;;;;;;;2.03;0.83;;;13.10;99.90;;;;;;5064759;28;20220;-48
2022/07/02 01:29:44;;;;;;;3.13;0.80;;;13.20;99.90;;;;;;5068840;28;20193;-48
2022/07/02 01:32:12;;;;;;;0.70;0.70;;;13.10;99.90;;;;;;5054555;28;20208;-47
2022/07/02 01:34:40;;;;;;;0.70;0.70;;;13.10;99.90;;;;;;5058779;28;20239;-48
2022/07/02 01:37:11;;;;;;;1.43;0.70;;;13.10;99.90;;;;;;5063352;28;20201;-48
2022/07/02 01:39:42;;;;;;;1.37;0.67;;;13.10;99.90;;;;;;5071548;28;20937;-48
2022/07/02 01:42:10;;;;;;;0.87;0.70;;;13.10;99.90;;;;;;5070972;28;20683;-47
2022/07/02 01:44:38;;;;;;;2.70;1.03;;;13.00;99.90;;;;;;5070577;28;20221;-48
2022/07/02 01:47:06;;;;;;;2.00;1.00;;;13.00;99.90;;;;;;5049688;28;20212;-48
2022/07/02 01:49:34;;;;;;;2.30;0.70;;;12.90;99.90;;;;;;5058214;28;21022;-48
2022/07/02 01:52:01;;;;;;;0.70;0.70;;;12.90;99.90;;;;;;5070892;28;20204;-47
2022/07/02 01:54:28;;;;;;;0.70;0.70;;;12.80;99.90;;;;;;5071489;28;20217;-48
2022/07/02 01:56:57;;;;;;;0.90;0.90;;;12.80;99.90;;;;;;5071774;28;20205;-48
2022/07/02 01:59:24;;;;;;;1.17;1.17;;;12.80;99.90;;;;;;5061732;28;20294;-48
2022/07/02 02:01:51;;;;;;;1.03;0.93;;;12.70;99.90;;;;;;5051483;28;20812;-47
2022/07/02 02:04:18;;;;;;;0.80;0.80;;;12.70;99.90;;;;;;5071482;28;20229;-48
2022/07/02 02:06:46;;;;;;;1.03;1.00;;;12.70;99.90;;;;;;5058063;28;20262;-48
2022/07/02 02:09:13;;;;;;;2.27;0.73;;;12.80;99.90;;;;;;5059347;28;20250;-47
2022/07/02 02:11:40;;;;;;;1.73;1.40;;;12.70;99.90;;;;;;5049140;28;20733;-47
2022/07/02 02:14:08;;;;;;;4.10;1.30;;;12.70;99.90;;;;;;5059502;28;20232;-48
2022/07/02 02:16:35;;;;;;;1.90;1.13;;;12.70;99.90;;;;;;5050385;28;20258;-48
2022/07/02 02:19:02;;;;;;;1.07;1.07;;;12.60;99.90;;;;;;5059447;28;20217;-48
2022/07/02 02:21:30;;;;;;;1.60;1.40;;;12.60;99.90;;;;;;5050592;28;20206;-48
2022/07/02 02:23:59;;;;;;;1.97;1.20;;;12.60;99.90;;;;;;5052289;28;20337;-47
2022/07/02 02:26:26;;;;;;;1.03;0.90;;;12.60;99.90;;;;;;5063011;28;20255;-47
2022/07/02 02:28:54;;;;;;;1.03;0.90;;;12.50;99.90;;;;;;5071452;28;20204;-47
2022/07/02 02:31:23;;;;;;;3.23;1.20;;;12.50;99.90;;;;;;5071080;28;20239;-48
2022/07/02 02:33:52;;;;;;;1.40;1.30;;;12.50;99.90;;;;;;5065052;28;20315;-48
2022/07/02 02:36:19;;;;;;;0.83;0.83;;;12.50;99.90;;;;;;5060984;28;20213;-47
2022/07/02 02:38:47;;;;;;;2.30;1.13;;;12.50;99.90;;;;;;5063509;28;20211;-47
2022/07/02 02:41:14;;;;;;;1.10;1.10;;;12.50;99.90;;;;;;5074371;28;20210;-48
2022/07/02 02:43:43;;;;;;;2.47;1.30;;;12.50;99.90;;;;;;5074703;28;20641;-48
2022/07/02 02:46:10;;;;;;;1.30;1.30;;;12.50;99.90;;;;;;5072070;28;20197;-48
2022/07/02 02:48:39;;;;;;;1.43;1.30;;;12.50;99.90;;;;;;5063691;28;20278;-48
2022/07/02 02:51:07;;;;;;;0.90;0.90;;;12.50;99.90;;;;;;5052151;28;20202;-47
2022/07/02 02:53:35;;;;;;;1.10;1.10;;;12.50;99.90;;;;;;5069848;28;20217;-47
2022/07/02 02:56:03;;;;;;;1.10;1.10;;;12.50;99.90;;;;;;5074853;28;20213;-48
2022/07/02 02:58:30;;;;;;;2.20;1.37;;;12.50;99.90;;;;;;5074635;28;20270;-47
2022/07/02 03:00:57;;;;;;;1.93;1.40;;;12.60;99.90;;;;;;5074679;28;20221;-48
2022/07/02 03:03:24;;;;;;;1.13;1.13;;;12.60;99.90;;;;;;5061356;28;20259;-48
2022/07/02 03:05:53;;;;;;;1.33;1.23;;;12.60;99.90;;;;;;5069192;28;20215;-48
2022/07/02 03:08:20;;;;;;;1.70;1.10;;;12.60;99.90;;;;;;5052668;28;20198;-47
2022/07/02 03:10:47;;;;;;;1.10;1.10;;;12.60;99.90;;;;;;5054275;28;20239;-47
2022/07/02 03:13:15;;;;;;;2.30;1.20;;;12.60;99.90;;;;;;5057120;28;20284;-47
2022/07/02 03:15:42;;;;;;;3.20;1.50;;;12.60;99.90;;;;;;5055634;28;20197;-47
2022/07/02 03:18:10;;;;;;;0.87;0.87;;;12.60;99.90;;;;;;5040557;28;20201;-48
2022/07/02 03:20:36;;;;;;;1.20;1.10;;;12.60;99.90;;;;;;5033733;28;20224;-48
2022/07/02 03:23:05;;;;;;;1.23;1.10;;;12.60;99.90;;;;;;5042891;28;20202;-48
2022/07/02 03:25:32;;;;;;;2.00;1.43;;;12.60;99.90;;;;;;5047394;28;20815;-47
2022/07/02 03:27:59;;;;;;;1.33;0.90;;;12.50;99.90;;;;;;5035271;28;20213;-47
2022/07/02 03:30:26;;;;;;;1.17;1.07;;;12.40;99.90;;;;;;5042937;28;20203;-47
2022/07/02 03:32:53;;;;;;;3.33;1.30;;;12.40;99.90;;;;;;5047604;28;20283;-48
2022/07/02 03:35:20;;;;;;;1.30;1.30;;;12.40;99.90;;;;;;5036982;28;20217;-47
2022/07/02 03:37:47;;;;;;;1.10;1.10;;;12.40;99.90;;;;;;5053022;28;20201;-48
2022/07/02 03:40:16;;;;;;;0.80;0.80;;;12.40;99.90;;;;;;5048986;28;20226;-47
2022/07/02 03:42:43;;;;;;;0.77;0.77;;;12.40;99.90;;;;;;5043844;28;20201;-47
2022/07/02 03:45:11;;;;;;;0.70;0.70;;;12.50;99.90;;;;;;5046708;28;20225;-48
2022/07/02 03:47:38;;;;;;;1.33;0.67;;;12.50;99.90;;;;;;5065293;28;20581;-47
2022/07/02 03:50:06;;;;;;;0.53;0.53;;;12.50;99.90;;;;;;5044481;28;20701;-48
2022/07/02 03:52:33;;;;;;;1.23;1.07;;;12.50;99.90;;;;;;5032543;28;20667;-48
2022/07/02 03:55:00;;;;;;;0.60;0.60;;;12.60;99.90;;;;;;5034010;28;20225;-47
2022/07/02 03:57:29;;;;;;;1.10;1.00;;;12.60;99.90;;;;;;5033216;28;20202;-48
2022/07/02 03:59:56;;;;;;;0.97;0.73;;;12.60;99.90;;;;;;5046835;28;20221;-48
2022/07/02 04:02:23;;;;;;;0.60;0.60;;;12.60;99.90;;;;;;5041924;28;20291;-48
2022/07/02 04:04:51;;;;;;;1.07;0.90;;;12.70;99.90;;;;;;5032394;28;20222;-48
2022/07/02 04:07:18;;;;;;;1.07;1.03;;;12.70;99.90;;;;;;5050700;28;20208;-47
2022/07/02 04:09:46;;;;;;;0.70;0.70;;;12.80;99.90;;;;;;5051550;28;20205;-48
2022/07/02 04:12:13;;;;;;;1.50;0.80;;;12.80;99.90;;;;;;5045456;28;20292;-47
2022/07/02 04:14:41;;;;;;;1.10;1.00;;;12.90;99.90;;;;;;5050997;28;21094;-47
2022/07/02 04:17:08;;;;;;;0.90;0.90;;;12.90;99.90;;;;;;5053946;28;20626;-47
2022/07/02 04:19:35;;;;;;;1.27;1.27;;;13.00;99.90;;;;;;5038913;28;20218;-47
2022/07/02 04:22:02;;;;;;;1.10;1.10;;;13.00;99.90;;;;;;5031352;28;20260;-48
2022/07/02 04:24:30;;;;;;;1.00;1.00;;;13.00;99.90;;;;;;5051027;28;20239;-47
2022/07/02 04:26:57;;;;;;;1.03;1.03;;;13.00;99.90;;;;;;5032575;28;20248;-46
2022/07/02 04:29:24;;;;;;;0.70;0.70;;;13.00;99.90;;;;;;5033358;28;20198;-48
2022/07/02 04:31:53;;;;;;;0.70;0.70;;;13.10;99.90;;;;;;5048075;28;20209;-47
2022/07/02 04:34:20;;;;;;;2.20;0.77;;;13.10;99.90;;;;;;5034088;28;20215;-47
2022/07/02 04:36:47;;;;;;;1.20;0.93;;;13.10;99.90;;;;;;5032169;28;20208;-48
2022/07/02 04:39:14;;;;;;;1.20;1.00;;;13.10;99.90;;;;;;5033992;28;20294;-47
2022/07/02 04:41:41;;;;;;;1.23;0.80;;;13.20;99.90;;;;;;5049902;28;20206;-48
2022/07/02 04:44:08;;;;;;;4.40;0.90;;;13.30;99.90;;;;;;5050757;28;20224;-47
2022/07/02 04:46:36;;;;;;;2.00;0.90;;;13.30;99.90;;;;;;5034674;28;20672;-48
2022/07/02 04:49:04;;;;;;;2.40;1.00;;;13.40;99.90;;;;;;5042235;28;20194;-48
2022/07/02 04:51:31;;;;;;;0.80;0.80;;;13.50;99.90;;;;;;5031126;28;20282;-47
2022/07/02 04:53:59;;;;;;;2.67;0.80;;;13.60;99.90;;;;;;5031830;28;20227;-48
2022/07/02 04:56:27;;;;;;;0.83;0.83;;;13.70;99.90;;;;;;5034408;28;20744;-48
2022/07/02 04:58:54;;;;;;;1.40;0.67;;;13.80;99.90;;;;;;5059516;28;20208;-48
2022/07/02 05:01:23;;;;;;;2.83;0.93;;;13.90;99.90;;;;;;5057432;28;20247;-48
2022/07/02 05:03:51;;;;;;;1.23;0.90;;;14.10;99.90;;;;;;5042699;28;20219;-48
2022/07/02 05:06:19;;;;;;;2.07;1.27;;;14.40;99.90;;;;;;5036986;28;20657;-48
2022/07/02 05:08:46;;;;;;;0.60;0.60;;;14.80;99.90;;;;;;5032862;28;20198;-48
2022/07/02 05:11:15;;;;;;;2.23;0.70;;;15.30;99.90;;;;;;5030892;28;20191;-48
2022/07/02 05:13:43;;;;;;;0.70;0.70;;;15.90;99.90;;;;;;5035034;28;20229;-48
2022/07/02 05:16:10;;;;;;;0.70;0.70;;;16.60;99.90;;;;;;5031825;28;20195;-48
2022/07/02 05:18:37;;;;;;;0.67;0.67;;;17.50;99.90;;;;;;5031748;28;20225;-48
2022/07/02 05:21:04;;;;;;;3.50;0.90;;;18.10;99.90;;;;;;5037281;28;20225;-49
2022/07/02 05:23:33;;;;;;;0.50;0.50;;;19.20;99.90;;;;;;5037452;28;20280;-48
2022/07/02 05:26:00;;;;;;;2.30;0.50;;;20.00;99.90;;;;;;5031608;28;20195;-47
2022/07/02 05:28:27;;;;;;;1.00;0.50;;;20.90;99.90;;;;;;5047110;28;20204;-47
2022/07/02 05:30:55;;;;;;;2.30;0.60;;;21.70;99.90;;;;;;5043453;28;20206;-48
2022/07/02 05:33:22;;;;;;;1.07;0.50;;;22.10;99.90;;;;;;5030394;28;20719;-48
2022/07/02 05:35:49;;;;;;;0.40;0.40;;;22.50;99.90;;;;;;5030235;28;20448;-48
2022/07/02 05:38:16;;;;;;;0.40;0.40;;;23.10;99.90;;;;;;5042441;28;20578;-48
2022/07/02 05:40:44;;;;;;;0.93;0.57;;;23.30;99.90;;;;;;5035193;28;20643;-48
2022/07/02 05:43:11;;;;;;;0.60;0.60;;;23.80;99.90;;;;;;5030371;28;20207;-48
2022/07/02 05:45:39;;;;;;;0.50;0.50;;;23.60;99.90;;;;;;5030848;28;20253;-49
2022/07/02 05:48:06;;;;;;;0.50;0.50;;;24.00;99.90;;;;;;5039296;28;20202;-49
2022/07/02 05:50:34;;;;;;;0.83;0.50;;;24.30;99.90;;;;;;5030860;28;20312;-48
2022/07/02 05:53:01;;;;;;;1.57;0.50;;;24.60;99.90;;;;;;5030049;28;20214;-48
2022/07/02 05:55:28;;;;;;;1.80;1.70;;;24.30;99.90;;;;;;5033700;28;20732;-48
2022/07/02 05:57:57;;;;;;;0.50;0.50;;;24.40;99.90;;;;;;5047525;28;20196;-48
2022/07/02 06:00:24;;;;;;;0.60;0.60;;;25.00;99.90;;;;;;5030623;28;20310;-48
2022/07/02 06:02:51;;;;;;;1.33;0.77;;;25.00;99.90;;;;;;5030371;28;20190;-48
2022/07/02 06:08:03;;;;;;;3.40;0.73;;;25.40;99.90;;;;;;5053099;28;20280;-49
2022/07/02 06:10:30;;;;;;;1.80;0.63;;;25.50;99.90;;;;;;5052723;28;20954;-48
2022/07/02 06:12:59;;;;;;;1.03;0.50;;;25.60;99.90;;;;;;5046668;28;20197;-49
2022/07/02 06:15:26;;;;;;;0.50;0.50;;;25.80;99.90;;;;;;5089313;22;20233;-57
2022/07/02 06:17:53;;;;;;;0.50;0.50;;;25.90;99.90;;;;;;5063499;28;20680;-57
2022/07/02 06:20:20;;;;;;;0.40;0.40;;;26.10;99.90;;;;;;5072442;28;20216;-57
2022/07/02 06:22:47;;;;;;;1.60;0.40;;;26.70;99.90;;;;;;5071591;28;20203;-57
2022/07/02 06:25:14;;;;;;;0.50;0.50;;;26.60;99.90;;;;;;5074048;28;20282;-57
2022/07/02 06:27:41;;;;;;;0.47;0.47;;;26.40;99.90;;;;;;5054646;28;20267;-57
2022/07/02 06:30:10;;;;;;;1.33;0.50;;;26.70;99.90;;;;;;5052634;28;20194;-57
2022/07/02 06:32:37;;;;;;;2.33;0.60;;;26.90;99.90;;;;;;5048445;28;20201;-58
2022/07/02 06:35:05;;;;;;;2.08;0.75;;;27.20;99.90;;;;;;5052878;28;20229;-56
2022/07/02 06:37:33;;;;;;;0.50;0.50;;;26.80;99.90;;;;;;5061612;28;20228;-56
2022/07/02 06:40:00;;;;;;;0.75;0.30;;;26.80;99.90;;;;;;5053532;28;20198;-56
2022/07/02 06:42:29;;;;;;;1.70;0.60;;;27.20;99.90;;;;;;5062850;28;20568;-57
2022/07/02 06:44:58;;;;;;;1.17;0.40;;;27.30;99.90;;;;;;5052293;28;20225;-56
2022/07/02 06:47:27;;;;;;;1.73;0.50;;;27.40;99.90;;;;;;5052858;28;20214;-56
2022/07/02 06:49:55;;;;;;;1.10;0.50;;;27.70;99.90;;;;;;5053123;28;20198;-57
2022/07/02 06:52:23;;;;;;;0.65;0.60;;;28.20;99.90;;;;;;5053644;28;20255;-57
2022/07/02 06:54:50;;;;;;;0.50;0.50;;;28.10;99.90;;;;;;5051426;28;20275;-57
2022/07/02 06:57:17;;;;;;;1.15;0.50;;;27.70;99.90;;;;;;5045257;28;20243;-57
2022/07/02 06:59:44;;;;;;;0.30;0.30;;;28.00;99.90;;;;;;5054031;28;20202;-57
2022/07/02 07:02:11;;;;;;;0.30;0.30;;;27.10;99.90;;;;;;5051266;28;20230;-57
2022/07/02 07:04:41;;;;;;;0.52;0.40;;;27.30;99.90;;;;;;5053156;28;20226;-57
2022/07/02 07:07:10;;;;;;;0.63;0.52;;;27.90;99.90;;;;;;5052788;28;20237;-57
2022/07/02 07:09:37;;;;;;;0.30;0.30;;;28.10;99.90;;;;;;5053640;28;20202;-57
2022/07/02 07:12:06;;;;;;;0.35;0.35;;;28.50;99.90;;;;;;5053001;28;20263;-56
2022/07/02 07:14:33;;;;;;;2.92;0.40;;;28.00;99.90;;;;;;5053758;28;20233;-57
2022/07/02 07:17:00;;;;;;;0.75;0.50;;;27.30;99.90;;;;;;5051555;28;20197;-57
2022/07/02 07:19:27;;;;;;;0.75;0.40;;;27.20;99.90;;;;;;5042251;28;20259;-56
2022/07/02 07:21:55;;;;;;;0.30;0.30;;;27.30;99.90;;;;;;5051003;28;20648;-57
2022/07/02 07:24:22;;;;;;;0.40;0.40;;;27.00;99.90;;;;;;5052357;28;20226;-56
2022/07/02 07:26:49;;;;;;;0.40;0.40;;;27.60;99.90;;;;;;5053330;28;20214;-57
2022/07/02 07:29:16;;;;;;;5.20;0.70;;;28.20;99.90;;;;;;5053267;28;20555;-57
2022/07/02 07:31:43;;;;;;;1.05;0.60;;;28.30;99.90;;;;;;5052807;28;20630;-57
2022/07/02 07:34:10;;;;;;;0.82;0.40;;;28.70;99.90;;;;;;5047662;28;20509;-57
2022/07/02 07:36:38;;;;;;;0.50;0.50;;;29.10;99.90;;;;;;5052166;28;20284;-57
2022/07/02 07:39:08;;;;;;;0.60;0.40;;;29.00;99.90;;;;;;5051164;28;20213;-57
2022/07/02 07:41:36;;;;;;;1.15;1.05;;;29.10;99.90;;;;;;5044250;28;20300;-57
2022/07/02 07:44:04;;;;;;;1.17;0.50;;;29.60;99.90;;;;;;5053055;28;20295;-57
2022/07/02 07:46:31;;;;;;;0.40;0.40;;;29.90;99.90;;;;;;5053058;28;20206;-57
2022/07/02 07:48:59;;;;;;;0.35;0.32;;;29.70;99.90;;;;;;5050791;28;20285;-57
2022/07/02 07:51:26;;;;;;;0.30;0.30;;;29.60;99.90;;;;;;5051024;28;20229;-56
2022/07/02 07:53:53;;;;;;;1.20;0.43;;;29.20;99.90;;;;;;5052972;28;20257;-57
2022/07/02 07:56:21;;;;;;;0.40;0.40;;;29.20;99.90;;;;;;5052972;28;20209;-57
2022/07/02 07:58:48;;;;;;;0.80;0.55;;;29.30;99.90;;;;;;5053004;28;20233;-57
2022/07/02 08:01:16;;;;;;;0.52;0.52;;;29.20;99.90;;;;;;5052192;28;20222;-57
2022/07/02 08:03:43;;;;;;;1.38;0.45;;;29.60;99.90;;;;;;5052611;28;20229;-57
2022/07/02 08:06:10;;;;;;;0.40;0.40;;;29.40;99.70;;;;;;5050869;28;20199;-57
2022/07/02 08:08:37;;;;;;;1.77;0.50;;;29.10;99.90;;;;;;5044223;28;20740;-57
2022/07/02 08:11:04;;;;;;;0.55;0.50;;;28.00;99.90;;;;;;5052473;28;20635;-57
2022/07/02 08:13:33;;;;;;;0.60;0.60;;;28.80;99.90;;;;;;5052241;28;20558;-57
2022/07/02 08:16:00;;;;;;;0.47;0.47;;;29.10;99.90;;;;;;5052556;28;20224;-57
2022/07/02 08:18:27;;;;;;;1.73;0.38;;;29.60;99.50;;;;;;5052480;28;20260;-57
2022/07/02 08:20:54;;;;;;;0.80;0.70;;;30.10;99.90;;;;;;5052393;28;20214;-57
2022/07/02 08:23:22;;;;;;;0.40;0.40;;;30.10;99.90;;;;;;5049407;28;20193;-57
2022/07/02 08:25:49;;;;;;;0.40;0.40;;;30.70;99.90;;;;;;5052275;28;20719;-57
2022/07/02 08:28:17;;;;;;;2.05;0.55;;;29.60;99.50;;;;;;5052464;28;20205;-57
2022/07/02 08:30:45;;;;;;;0.35;0.35;;;30.30;99.00;;;;;;5051764;28;20205;-57
2022/07/02 08:33:15;;;;;;;0.50;0.50;;;30.80;97.80;;;;;;5051751;28;20202;-57
2022/07/02 08:35:42;;;;;;;0.50;0.50;;;31.20;96.70;;;;;;5052168;28;20244;-57
2022/07/02 08:38:09;;;;;;;0.30;0.30;;;31.00;96.50;;;;;;5052114;28;20206;-57
2022/07/02 08:40:36;;;;;;;0.50;0.50;;;31.20;96.10;;;;;;5043282;28;20737;-57
2022/07/02 08:43:08;;;;;;;1.88;0.50;;;31.20;97.30;;;;;;5046260;28;20735;-57
2022/07/02 08:45:37;;;;;;;1.02;0.43;;;31.30;96.80;;;;;;5047239;28;20300;-56
2022/07/02 08:48:07;;;;;;;0.35;0.35;;;31.00;96.10;;;;;;5051610;28;20639;-57
2022/07/02 08:50:35;;;;;;;0.50;0.50;;;31.00;95.60;;;;;;5047257;28;20288;-57
2022/07/02 08:53:03;;;;;;;0.40;0.40;;;30.90;96.30;;;;;;5047756;28;20336;-57
2022/07/02 08:55:33;;;;;;;0.40;0.40;;;30.80;97.30;;;;;;5046323;28;20226;-57
2022/07/02 08:58:01;;;;;;;1.20;0.30;;;31.40;94.70;;;;;;5042137;28;20214;-57
2022/07/02 09:00:28;;;;;;;0.50;0.50;;;31.50;95.30;;;;;;5050724;28;20206;-57
2022/07/02 09:02:56;;;;;;;0.40;0.40;;;31.30;94.50;;;;;;5050052;28;20276;-57
2022/07/02 09:05:26;;;;;;;0.52;0.52;;;31.30;94.20;;;;;;5051070;28;20638;-57
2022/07/02 09:07:55;;;;;;;0.40;0.40;;;31.30;96.70;;;;;;5051613;28;20202;-56
2022/07/02 09:10:23;;;;;;;1.15;1.05;;;30.50;94.50;;;;;;5051470;28;20588;-57
2022/07/02 09:12:52;;;;;;;0.50;0.50;;;30.60;95.90;;;;;;5049809;28;20205;-57
2022/07/02 09:15:18;;;;;;;2.15;0.50;;;30.20;95.20;;;;;;5041878;28;20233;-57
2022/07/02 09:17:45;;;;;;;0.52;0.40;;;30.30;97.60;;;;;;5051311;28;20202;-57
2022/07/02 09:20:13;;;;;;;0.40;0.40;;;30.10;97.40;;;;;;5051205;28;20198;-56
2022/07/02 09:22:43;;;;;;;1.63;0.60;;;29.60;97.50;;;;;;5050395;28;20719;-56
2022/07/02 09:25:14;;;;;;;0.82;0.30;;;29.40;98.70;;;;;;5051208;28;20268;-56
2022/07/02 09:27:41;;;;;;;0.50;0.50;;;28.70;99.50;;;;;;5050331;28;20194;-56
2022/07/02 09:30:10;;;;;;;0.52;0.52;;;28.80;99.10;;;;;;5041362;28;20283;-57
2022/07/02 09:32:39;;;;;;;0.40;0.40;;;29.00;98.30;;;;;;5042332;28;20197;-56
2022/07/02 09:35:07;;;;;;;0.57;0.47;;;29.80;98.80;;;;;;5050926;28;20316;-56
2022/07/02 09:37:34;;;;;;;0.40;0.40;;;29.10;99.70;;;;;;5050695;28;20288;-56
2022/07/02 09:40:04;;;;;;;0.50;0.50;;;29.30;99.90;;;;;;5047685;28;20206;-56
2022/07/02 09:42:33;;;;;;;1.20;0.40;;;29.10;99.90;;;;;;5039807;28;20644;-57
2022/07/02 09:45:02;;;;;;;0.40;0.40;;;29.30;98.40;;;;;;5045689;28;20300;-56
2022/07/02 09:47:33;;;;;;;0.45;0.40;;;28.60;98.80;;;;;;5048553;28;20282;-56
2022/07/02 09:50:04;;;;;;;0.40;0.40;;;28.80;99.90;;;;;;5039796;28;20667;-56
2022/07/02 09:52:31;;;;;;;0.47;0.40;;;29.00;99.30;;;;;;5043470;28;20202;-56
2022/07/02 09:54:59;;;;;;;0.40;0.30;;;29.00;99.40;;;;;;5050302;28;20221;-57
2022/07/02 09:57:28;;;;;;;0.22;0.22;;;29.00;98.60;;;;;;5044299;28;20265;-56
2022/07/02 10:00:05;;;;;;;0.40;0.40;;;29.70;99.90;;;;;;5048950;28;20276;-56
2022/07/02 10:02:32;;;;;;;0.63;0.40;;;29.10;99.90;;;;;;5048928;28;20225;-56
2022/07/02 10:05:03;;;;;;;0.40;0.40;;;29.30;97.70;;;;;;5049611;28;20221;-56
2022/07/02 10:07:30;;;;;;;0.60;0.57;;;29.30;98.90;;;;;;5050026;28;20194;-55
2022/07/02 10:10:00;;;;;;;0.45;0.38;;;29.40;97.90;;;;;;5055422;28;20745;-56
2022/07/02 10:12:29;;;;;;;0.40;0.40;;;29.00;97.60;;;;;;5049940;28;20729;-56
2022/07/02 10:14:58;;;;;;;0.40;0.40;;;29.00;99.30;;;;;;5049121;28;20330;-55
2022/07/02 10:17:26;;;;;;;0.43;0.30;;;28.60;99.20;;;;;;5050453;28;20263;-56
2022/07/02 10:19:53;;;;;;;0.85;0.40;;;28.10;99.90;;;;;;5048613;28;20206;-56
2022/07/02 10:22:22;;;;;;;0.40;0.40;;;28.20;99.90;;;;;;5050171;28;20249;-56
2022/07/02 10:24:51;;;;;;;0.30;0.30;;;28.60;99.90;;;;;;5050062;28;20236;-55
2022/07/02 10:27:19;;;;;;;0.40;0.40;;;28.60;99.90;;;;;;5047326;28;20642;-56
2022/07/02 10:29:48;;;;;;;0.40;0.40;;;29.10;99.90;;;;;;5045760;28;20210;-56
2022/07/02 10:32:35;;;;;;;0.40;0.40;;;29.20;99.20;;;;;;5048710;28;20260;-56
2022/07/02 10:35:09;;;;;;;0.73;0.40;;;29.50;99.90;;;;;;5046884;28;20225;-56
2022/07/02 10:37:38;;;;;;;1.13;0.40;;;29.50;99.50;;;;;;5049960;28;20334;-56
2022/07/02 10:40:06;;;;;;;0.73;0.40;;;29.50;99.90;;;;;;5049725;28;20197;-56
2022/07/02 10:42:39;;;;;;;2.65;0.40;;;29.80;99.90;;;;;;5049530;28;20305;-56
2022/07/02 10:45:14;;;;;;;0.43;0.43;;;30.00;99.90;;;;;;5050121;28;20648;-56
2022/07/02 10:47:54;;;;;;;0.70;0.40;;;29.90;98.50;;;;;;5048153;28;20194;-56
2022/07/02 10:50:21;;;;;;;0.60;0.40;;;29.60;99.20;;;;;;5049199;28;20336;-56
2022/07/02 10:52:50;;;;;;;0.32;0.32;;;29.30;99.70;;;;;;5052527;28;20251;-56
2022/07/02 10:55:26;;;;;;;0.30;0.30;;;29.10;99.20;;;;;;5053611;28;20597;-56
2022/07/02 10:57:58;;;;;;;0.60;0.60;;;28.80;99.90;;;;;;5058030;28;20609;-55
2022/07/02 11:00:32;;;;;;;1.65;0.55;;;28.80;99.90;;;;;;5064537;28;20206;-56
2022/07/02 11:03:00;;;;;;;0.50;0.50;;;28.40;99.90;;;;;;5071906;28;20207;-55
2022/07/02 11:05:27;;;;;;;0.30;0.30;;;27.80;99.90;;;;;;5058606;28;20226;-55
2022/07/02 11:07:54;;;;;;;0.50;0.50;;;27.80;99.90;;;;;;5053248;28;20232;-55
2022/07/02 11:10:28;;;;;;;0.40;0.40;;;27.70;99.90;;;;;;5053694;28;20209;-55
2022/07/02 11:12:59;;;;;;;0.50;0.50;;;27.70;99.90;;;;;;5048849;28;20190;-56
2022/07/02 11:15:34;;;;;;;0.40;0.40;;;27.50;99.90;;;;;;5052781;28;20229;-55
2022/07/02 11:18:04;;;;;;;3.53;0.43;;;27.60;99.90;;;;;;5054512;28;20294;-55
2022/07/02 11:20:34;;;;;;;0.30;0.30;;;27.50;99.90;;;;;;5052554;28;20225;-56
2022/07/02 11:23:01;;;;;;;1.10;0.40;;;27.50;99.90;;;;;;5050946;28;20222;-56
2022/07/02 11:25:30;;;;;;;5.22;0.60;;;27.40;99.90;;;;;;5046396;28;20221;-55
2022/07/02 11:27:58;;;;;;;0.25;0.25;;;27.00;99.90;;;;;;5052538;28;20198;-55
2022/07/02 11:30:27;;;;;;;0.35;0.35;;;26.90;99.90;;;;;;5052175;28;20230;-56
2022/07/02 11:32:56;;;;;;;0.40;0.40;;;26.90;99.90;;;;;;5051609;28;20194;-55
2022/07/02 11:35:23;;;;;;;0.50;0.50;;;26.80;99.90;;;;;;5052874;28;20235;-55
2022/07/02 11:37:55;;;;;;;0.40;0.40;;;26.40;99.90;;;;;;5052936;28;20687;-55
2022/07/02 11:40:24;;;;;;;0.40;0.40;;;26.40;99.90;;;;;;5051644;28;20202;-55
2022/07/02 11:42:51;;;;;;;0.50;0.50;;;26.20;99.90;;;;;;5052046;28;20298;-55
2022/07/02 11:45:18;;;;;;;0.30;0.30;;;26.30;99.90;;;;;;5048765;28;20603;-56
2022/07/02 11:47:46;;;;;;;0.65;0.40;;;26.50;99.90;;;;;;5052935;28;20224;-56
2022/07/02 11:50:14;;;;;;;0.77;0.50;;;26.60;99.90;;;;;;5052681;28;20251;-56
2022/07/02 11:52:42;;;;;;;0.35;0.35;;;26.70;99.90;;;;;;5051997;28;20676;-55
2022/07/02 11:55:15;;;;;;;0.73;0.40;;;26.60;99.90;;;;;;5052390;28;20218;-55
2022/07/02 11:57:43;;;;;;;0.30;0.30;;;26.30;99.90;;;;;;5051071;28;20716;-55
2022/07/02 12:00:12;;;;;;;0.30;0.30;;;26.20;99.90;;;;;;5051883;28;20335;-55
2022/07/02 12:02:39;;;;;;;0.90;0.40;;;26.20;99.90;;;;;;5051580;28;20218;-55
2022/07/02 12:05:19;;;;;;;0.40;0.40;;;26.10;99.90;;;;;;5047084;28;20230;-55
2022/07/02 12:07:46;;;;;;;0.77;0.60;;;26.20;99.90;;;;;;5047922;28;20201;-55
2022/07/02 12:10:14;;;;;;;0.63;0.40;;;26.20;99.90;;;;;;5053064;28;20202;-55
2022/07/02 12:12:41;;;;;;;1.47;0.60;;;26.00;99.90;;;;;;5049932;28;20359;-55
2022/07/02 12:15:10;;;;;;;0.30;0.30;;;26.20;99.90;;;;;;5068350;22;20276;-48
2022/07/02 12:17:46;;;;;;;0.70;0.70;;;26.40;99.90;;;;;;5039678;28;20722;-48
2022/07/02 12:20:14;;;;;;;0.50;0.50;;;26.40;99.90;;;;;;5033640;28;20205;-48
2022/07/02 12:22:42;;;;;;;0.30;0.30;;;26.00;99.90;;;;;;5044084;28;20245;-48
2022/07/02 12:25:09;;;;;;;0.50;0.50;;;26.00;99.90;;;;;;5053261;28;20229;-48
2022/07/02 12:27:37;;;;;;;0.50;0.50;;;26.00;99.90;;;;;;5048520;28;20217;-49
2022/07/02 12:30:12;;;;;;;0.50;0.50;;;26.10;99.90;;;;;;5025965;28;20281;-48
2022/07/02 12:32:39;;;;;;;0.50;0.50;;;25.80;99.90;;;;;;5025457;28;20616;-48
2022/07/02 12:35:10;;;;;;;0.67;0.40;;;25.90;99.90;;;;;;5014535;28;20219;-48
2022/07/02 12:37:38;;;;;;;0.30;0.30;;;25.90;99.90;;;;;;5031429;28;20211;-48
2022/07/02 12:40:09;;;;;;;0.30;0.30;;;26.00;99.90;;;;;;5031038;28;20252;-48
2022/07/02 12:42:46;;;;;;;0.43;0.40;;;26.10;99.90;;;;;;5027900;28;20820;-48
2022/07/02 12:45:22;;;;;;;0.50;0.50;;;26.10;99.90;;;;;;5024872;28;20216;-48
2022/07/02 12:47:58;;;;;;;0.50;0.50;;;26.00;99.90;;;;;;5013317;28;20210;-48
2022/07/02 12:50:26;;;;;;;0.30;0.30;;;25.90;99.90;;;;;;5012677;28;20199;-49
2022/07/02 12:52:56;;;;;;;0.30;0.30;;;26.00;99.90;;;;;;5018818;28;20266;-49
2022/07/02 12:55:28;;;;;;;1.40;0.50;;;26.00;99.90;;;;;;5012170;28;20230;-49
2022/07/02 12:57:57;;;;;;;0.43;0.43;;;25.90;99.90;;;;;;5030770;28;20226;-49